Time;durP1;ratioP1;P1;durP2;ratioP2;P2;SDS_P1;SDS_P2;PMS_P1;PMS_P2;Temp;Humidity;BMP_temperature;BMP_pressure;BME280_temperature;BME280_humidity;BME280_pressure;Samples;Min_cycle;Max_cycle;Signal;HPM_P1;HPM_P2
2022/06/26 00:01:08;;;;;;;7.93;3.78;;;19.90;99.90;;;;;;5055643;28;20506;-51
2022/06/26 00:03:33;;;;;;;8.90;4.00;;;19.80;99.90;;;;;;5054731;28;20388;-52
2022/06/26 00:05:59;;;;;;;8.53;3.60;;;19.70;1.00;;;;;;5071967;28;20375;-51
2022/06/26 00:08:25;;;;;;;8.13;4.20;;;19.70;99.90;;;;;;5071267;28;20388;-52
2022/06/26 00:10:52;;;;;;;8.23;3.60;;;19.70;1.00;;;;;;5072007;28;20906;-51
2022/06/26 00:13:18;;;;;;;8.25;4.05;;;19.60;99.90;;;;;;5070087;28;20394;-51
2022/06/26 00:15:44;;;;;;;8.07;3.90;;;19.60;99.90;;;;;;5058226;28;20390;-51
2022/06/26 00:18:10;;;;;;;8.90;4.10;;;19.60;1.00;;;;;;5072184;28;20463;-51
2022/06/26 00:20:37;;;;;;;10.30;4.50;;;19.50;16.50;;;;;;5062350;28;20893;-51
2022/06/26 00:23:02;;;;;;;8.65;4.53;;;19.40;99.90;;;;;;5051973;28;20507;-51
2022/06/26 00:25:28;;;;;;;8.60;4.80;;;19.40;1.00;;;;;;5046290;28;20504;-52
2022/06/26 00:27:54;;;;;;;10.23;4.70;;;19.40;1.00;;;;;;5051394;28;20412;-51
2022/06/26 00:30:20;;;;;;;10.10;5.10;;;19.40;99.90;;;;;;5050737;28;20549;-57
2022/06/26 00:32:46;;;;;;;8.68;4.20;;;19.30;1.00;;;;;;5050305;28;20476;-51
2022/06/26 00:35:11;;;;;;;9.98;4.70;;;19.40;99.90;;;;;;5051587;28;20464;-52
2022/06/26 00:37:37;;;;;;;8.10;3.80;;;19.50;1.00;;;;;;5050515;28;20478;-52
2022/06/26 00:40:03;;;;;;;8.95;3.67;;;19.40;1.00;;;;;;5051394;28;20388;-51
2022/06/26 00:42:29;;;;;;;8.23;3.72;;;19.50;1.00;;;;;;5050145;28;20962;-51
2022/06/26 00:44:56;;;;;;;7.50;3.27;;;19.60;99.90;;;;;;5051073;28;20460;-51
2022/06/26 00:47:22;;;;;;;6.50;3.03;;;19.80;1.00;;;;;;5050671;28;20511;-57
2022/06/26 00:49:48;;;;;;;7.68;3.00;;;19.50;99.90;;;;;;5051987;28;20797;-52
2022/06/26 00:52:16;;;;;;;6.80;2.80;;;20.30;39.00;;;;;;5050999;28;20509;-52
2022/06/26 00:54:42;;;;;;;7.57;3.22;;;20.40;1.00;;;;;;5050530;28;20455;-54
2022/06/26 00:57:08;;;;;;;6.50;2.50;;;20.60;1.00;;;;;;5033049;28;20732;-52
2022/06/26 00:59:35;;;;;;;6.80;2.70;;;20.70;1.00;;;;;;5050574;28;20374;-52
2022/06/26 01:02:00;;;;;;;6.43;2.40;;;20.80;1.00;;;;;;5051057;28;20401;-52
2022/06/26 01:04:26;;;;;;;7.40;2.88;;;20.70;99.90;;;;;;5050444;28;20366;-52
2022/06/26 01:06:52;;;;;;;6.28;2.80;;;20.60;99.90;;;;;;5050858;28;20921;-52
2022/06/26 01:09:17;;;;;;;6.00;2.57;;;20.60;1.00;;;;;;5051007;28;20422;-52
2022/06/26 01:11:44;;;;;;;7.30;2.80;;;20.70;99.90;;;;;;5050063;28;20539;-52
2022/06/26 01:14:11;;;;;;;6.72;3.00;;;20.70;99.90;;;;;;5051112;28;20400;-52
2022/06/26 01:16:40;;;;;;;6.45;2.70;;;20.90;99.90;;;;;;5050098;28;20401;-53
2022/06/26 01:19:07;;;;;;;6.85;3.00;;;20.70;1.00;;;;;;5050951;28;20438;-51
2022/06/26 01:21:33;;;;;;;6.20;2.80;;;20.80;99.90;;;;;;5049776;28;20405;-51
2022/06/26 01:23:59;;;;;;;7.60;2.70;;;20.80;99.90;;;;;;5050660;28;20445;-52
2022/06/26 01:26:26;;;;;;;8.10;3.13;;;21.00;99.90;;;;;;5038464;28;20427;-52
2022/06/26 01:28:53;;;;;;;6.20;3.10;;;21.00;99.90;;;;;;5055470;28;20397;-52
2022/06/26 01:31:19;;;;;;;9.85;3.10;;;21.10;99.90;;;;;;5067969;28;21012;-52
2022/06/26 01:33:47;;;;;;;8.20;3.10;;;21.10;99.90;;;;;;5069238;28;20433;-52
2022/06/26 01:36:12;;;;;;;7.47;2.80;;;21.20;99.90;;;;;;5049375;28;20397;-52
2022/06/26 01:38:38;;;;;;;7.13;2.90;;;21.20;99.90;;;;;;5049926;28;20374;-52
2022/06/26 01:41:04;;;;;;;6.70;3.10;;;21.20;99.90;;;;;;5050319;28;20397;-52
2022/06/26 01:43:31;;;;;;;7.00;3.10;;;21.30;99.90;;;;;;5049224;28;20839;-52
2022/06/26 01:45:58;;;;;;;6.55;2.88;;;21.30;99.90;;;;;;5050533;28;20400;-51
2022/06/26 01:48:24;;;;;;;6.20;2.80;;;21.20;99.90;;;;;;5050077;28;20400;-57
2022/06/26 01:50:51;;;;;;;8.07;3.20;;;21.30;99.90;;;;;;5050519;28;20969;-52
2022/06/26 01:53:17;;;;;;;7.00;3.00;;;21.20;99.90;;;;;;5050245;28;20398;-52
2022/06/26 01:55:43;;;;;;;7.13;3.08;;;21.10;99.90;;;;;;5049171;28;20485;-52
2022/06/26 01:58:09;;;;;;;7.00;3.30;;;21.10;99.90;;;;;;5037268;28;20461;-52
2022/06/26 02:00:37;;;;;;;7.40;2.90;;;21.00;99.90;;;;;;5029574;28;20387;-54
2022/06/26 02:03:05;;;;;;;8.98;3.30;;;20.90;99.90;;;;;;5040849;28;20393;-52
2022/06/26 02:05:31;;;;;;;6.90;2.60;;;20.80;99.90;;;;;;5048999;28;20386;-51
2022/06/26 02:07:57;;;;;;;8.03;2.70;;;20.80;99.90;;;;;;5049989;28;20423;-51
2022/06/26 02:15:55;;;;;;;9.00;2.47;;;20.70;99.90;;;;;;5049818;28;20376;-50
2022/06/26 02:18:21;;;;;;;6.10;2.38;;;20.60;99.90;;;;;;5049341;28;20396;-52
2022/06/26 02:20:47;;;;;;;6.90;2.70;;;20.60;99.90;;;;;;5049140;28;20427;-51
2022/06/26 02:23:13;;;;;;;5.80;2.00;;;20.60;99.90;;;;;;5049492;28;20401;-52
2022/06/26 02:25:39;;;;;;;5.43;2.10;;;20.50;99.90;;;;;;5048504;28;20783;-52
2022/06/26 02:28:05;;;;;;;6.20;2.40;;;20.60;99.90;;;;;;5049138;28;20747;-52
2022/06/26 02:30:31;;;;;;;5.72;2.30;;;20.60;99.90;;;;;;5048855;28;20476;-54
2022/06/26 02:32:57;;;;;;;5.60;2.35;;;20.40;1.00;;;;;;5049784;28;20393;-51
2022/06/26 02:35:24;;;;;;;5.82;2.35;;;20.30;99.90;;;;;;5049421;28;20715;-56
2022/06/26 02:37:50;;;;;;;5.25;1.85;;;20.20;1.00;;;;;;5048998;28;20468;-52
2022/06/26 02:40:17;;;;;;;5.40;2.10;;;20.10;99.90;;;;;;5049553;28;20378;-52
2022/06/26 02:42:43;;;;;;;5.22;2.00;;;20.10;99.90;;;;;;5048230;28;20660;-52
2022/06/26 02:45:09;;;;;;;6.20;2.20;;;20.00;1.00;;;;;;5049450;28;20882;-51
2022/06/26 02:47:35;;;;;;;5.40;2.13;;;19.90;99.90;;;;;;5048389;28;20445;-51
2022/06/26 02:50:02;;;;;;;6.20;2.45;;;19.70;99.90;;;;;;5049420;28;20385;-51
2022/06/26 02:52:28;;;;;;;6.10;2.20;;;19.60;99.90;;;;;;5048334;28;20484;-51
2022/06/26 02:54:53;;;;;;;5.80;1.90;;;19.50;1.00;;;;;;5053014;28;20477;-51
2022/06/26 02:57:19;;;;;;;5.90;1.80;;;19.40;1.00;;;;;;5055927;28;20389;-52
2022/06/26 02:59:45;;;;;;;6.23;2.10;;;19.40;1.00;;;;;;5054574;28;20470;-51
2022/06/26 03:02:10;;;;;;;6.17;2.27;;;19.50;31.00;;;;;;5037350;28;20400;-51
2022/06/26 03:04:36;;;;;;;5.83;2.30;;;19.50;99.90;;;;;;5054786;28;20394;-52
2022/06/26 03:07:04;;;;;;;5.60;1.90;;;19.60;66.50;;;;;;5055485;28;20409;-52
2022/06/26 03:09:30;;;;;;;5.50;1.90;;;19.50;99.90;;;;;;5054790;28;20477;-52
2022/06/26 03:11:56;;;;;;;5.50;1.70;;;19.50;99.90;;;;;;5055937;28;20857;-51
2022/06/26 03:14:21;;;;;;;5.60;1.80;;;19.50;99.90;;;;;;5055698;28;20431;-54
2022/06/26 03:16:47;;;;;;;4.90;1.50;;;19.40;99.90;;;;;;5055140;28;20866;-52
2022/06/26 03:19:13;;;;;;;6.20;1.90;;;19.30;99.90;;;;;;5055594;28;20401;-52
2022/06/26 03:21:39;;;;;;;5.22;1.90;;;19.30;99.90;;;;;;5054939;28;20503;-52
2022/06/26 03:24:04;;;;;;;9.70;1.80;;;19.40;99.90;;;;;;5054954;28;20416;-52
2022/06/26 03:26:31;;;;;;;4.70;1.48;;;19.50;48.40;;;;;;5055069;28;20413;-51
2022/06/26 03:28:57;;;;;;;8.00;1.65;;;19.60;66.60;;;;;;5055492;28;20616;-51
2022/06/26 03:31:23;;;;;;;5.50;1.63;;;19.70;99.90;;;;;;5055651;28;20438;-56
2022/06/26 03:33:49;;;;;;;4.95;1.50;;;19.70;99.90;;;;;;5055031;28;20746;-52
2022/06/26 03:36:15;;;;;;;6.10;2.00;;;19.70;1.00;;;;;;5055356;28;20390;-53
2022/06/26 03:38:40;;;;;;;5.90;1.80;;;19.80;1.00;;;;;;5055023;28;20920;-54
2022/06/26 03:41:06;;;;;;;5.47;1.90;;;19.90;99.90;;;;;;5055470;28;20428;-51
2022/06/26 03:43:32;;;;;;;5.60;1.90;;;20.10;1.00;;;;;;5054636;28;20436;-52
2022/06/26 03:45:57;;;;;;;6.33;1.70;;;20.10;1.00;;;;;;5055553;28;20922;-51
2022/06/26 03:48:23;;;;;;;5.47;1.70;;;20.00;99.90;;;;;;5055459;28;20393;-57
2022/06/26 03:50:50;;;;;;;5.57;2.00;;;19.70;1.00;;;;;;5054507;28;20797;-51
2022/06/26 03:53:16;;;;;;;5.72;2.00;;;19.60;99.90;;;;;;5055267;28;20524;-51
2022/06/26 03:55:42;;;;;;;5.78;1.90;;;19.50;99.90;;;;;;5054628;28;20423;-53
2022/06/26 03:58:08;;;;;;;4.90;1.40;;;19.60;99.90;;;;;;5055291;28;20897;-52
2022/06/26 04:00:35;;;;;;;6.22;1.80;;;19.70;99.90;;;;;;5054624;28;20420;-52
2022/06/26 04:03:04;;;;;;;5.32;1.60;;;19.70;1.00;;;;;;5054965;28;20677;-52
2022/06/26 04:05:31;;;;;;;5.60;1.77;;;19.80;1.00;;;;;;5053749;28;20886;-52
2022/06/26 04:07:57;;;;;;;5.20;1.67;;;19.90;99.90;;;;;;5034223;28;20758;-53
2022/06/26 04:10:23;;;;;;;7.40;2.78;;;19.90;99.90;;;;;;5051849;28;20805;-52
2022/06/26 04:12:49;;;;;;;5.97;2.00;;;19.90;99.90;;;;;;5051487;28;20382;-52
2022/06/26 04:15:15;;;;;;;5.53;1.60;;;20.00;1.00;;;;;;5051582;28;20401;-52
2022/06/26 04:17:41;;;;;;;6.15;1.70;;;20.10;1.00;;;;;;5051388;28;20944;-51
2022/06/26 04:20:07;;;;;;;5.00;1.67;;;20.20;99.90;;;;;;5052096;28;20409;-51
2022/06/26 04:22:33;;;;;;;5.22;1.60;;;20.20;99.90;;;;;;5051145;28;20754;-51
2022/06/26 04:24:58;;;;;;;5.63;1.80;;;20.10;1.00;;;;;;5051312;28;20418;-52
2022/06/26 04:27:24;;;;;;;5.10;2.05;;;20.00;1.20;;;;;;5051294;28;20468;-56
2022/06/26 04:29:50;;;;;;;5.25;1.60;;;19.90;99.90;;;;;;5051630;28;20481;-51
2022/06/26 04:32:15;;;;;;;5.60;1.80;;;19.90;1.00;;;;;;5051662;28;20766;-52
2022/06/26 04:34:41;;;;;;;6.97;1.83;;;19.90;99.90;;;;;;5050794;28;20443;-52
2022/06/26 04:37:07;;;;;;;5.47;1.90;;;19.90;99.90;;;;;;5051796;28;20393;-52
2022/06/26 04:39:33;;;;;;;5.50;2.10;;;19.80;99.90;;;;;;5050348;28;20876;-51
2022/06/26 04:41:58;;;;;;;5.87;2.10;;;19.90;1.00;;;;;;5051260;28;20386;-52
2022/06/26 04:44:24;;;;;;;6.03;2.30;;;20.00;1.00;;;;;;5051473;28;20676;-57
2022/06/26 04:46:51;;;;;;;5.30;2.00;;;20.20;1.00;;;;;;5050916;28;20415;-51
2022/06/26 04:49:16;;;;;;;5.88;2.50;;;20.30;1.00;;;;;;5051233;28;20397;-51
2022/06/26 04:51:42;;;;;;;5.25;1.85;;;20.30;99.90;;;;;;5050788;28;20377;-52
2022/06/26 04:54:08;;;;;;;6.70;2.40;;;20.50;1.00;;;;;;5051628;28;20481;-52
2022/06/26 04:56:35;;;;;;;6.40;2.30;;;20.60;4.10;;;;;;5050289;28;20459;-52
2022/06/26 04:59:01;;;;;;;5.72;2.00;;;20.60;37.90;;;;;;5050946;28;20397;-52
2022/06/26 05:01:28;;;;;;;5.80;2.40;;;20.80;1.00;;;;;;5050677;28;20385;-57
2022/06/26 05:03:54;;;;;;;5.80;2.03;;;20.90;1.00;;;;;;5051005;28;20469;-52
2022/06/26 05:06:20;;;;;;;5.68;2.10;;;21.00;99.90;;;;;;5050912;28;20447;-53
2022/06/26 05:08:46;;;;;;;7.10;2.30;;;20.90;1.00;;;;;;5050231;28;20389;-53
2022/06/26 05:11:12;;;;;;;6.50;2.40;;;20.70;1.00;;;;;;5050916;28;20750;-53
2022/06/26 05:13:38;;;;;;;8.10;2.20;;;20.60;1.00;;;;;;5049379;28;20389;-52
2022/06/26 05:16:04;;;;;;;5.55;2.13;;;20.70;99.90;;;;;;5050540;28;20381;-52
2022/06/26 05:18:30;;;;;;;5.60;2.13;;;20.90;10.40;;;;;;5031812;28;20917;-52
2022/06/26 05:20:56;;;;;;;6.90;2.00;;;21.10;1.00;;;;;;5050569;28;20413;-51
2022/06/26 05:23:22;;;;;;;5.93;2.47;;;21.20;1.00;;;;;;5050672;28;20424;-52
2022/06/26 05:25:47;;;;;;;5.80;2.20;;;21.20;1.00;;;;;;5049476;28;20520;-52
2022/06/26 05:28:13;;;;;;;5.60;2.40;;;21.20;99.90;;;;;;5032973;28;20914;-52
2022/06/26 05:30:39;;;;;;;6.30;3.00;;;21.40;99.90;;;;;;5049841;28;20480;-51
2022/06/26 05:33:05;;;;;;;6.00;2.50;;;21.60;99.90;;;;;;5049547;28;20393;-52
2022/06/26 05:35:31;;;;;;;6.30;2.78;;;21.70;99.90;;;;;;5049680;28;20397;-52
2022/06/26 05:37:57;;;;;;;8.65;2.70;;;21.80;91.30;;;;;;5050684;28;20404;-52
2022/06/26 05:40:22;;;;;;;6.70;2.80;;;21.80;45.40;;;;;;5050826;28;20465;-52
2022/06/26 05:42:48;;;;;;;6.80;2.90;;;21.60;99.90;;;;;;5049654;28;20540;-51
2022/06/26 05:45:13;;;;;;;9.10;3.80;;;21.70;99.90;;;;;;5049895;28;20385;-52
2022/06/26 05:47:39;;;;;;;7.57;3.10;;;21.80;57.00;;;;;;5049222;28;20759;-52
2022/06/26 05:50:06;;;;;;;7.07;3.30;;;21.80;99.90;;;;;;5050666;28;20934;-52
2022/06/26 05:52:35;;;;;;;6.50;3.50;;;22.00;99.90;;;;;;5049320;28;20429;-52
2022/06/26 05:55:00;;;;;;;8.70;3.55;;;22.00;99.90;;;;;;5049995;28;20390;-52
2022/06/26 05:57:26;;;;;;;14.13;3.80;;;22.20;99.90;;;;;;5049907;28;20792;-57
2022/06/26 05:59:52;;;;;;;7.73;3.13;;;22.30;99.90;;;;;;5047177;28;20958;-52
2022/06/26 06:02:17;;;;;;;6.40;2.93;;;22.30;99.90;;;;;;5049553;28;20416;-52
2022/06/26 06:04:43;;;;;;;6.53;3.10;;;22.30;99.90;;;;;;5042721;28;20442;-53
2022/06/26 06:07:08;;;;;;;7.50;3.00;;;22.30;99.90;;;;;;5049531;28;20473;-52
2022/06/26 06:09:34;;;;;;;6.80;3.10;;;22.30;41.70;;;;;;5049071;28;20887;-56
2022/06/26 06:12:00;;;;;;;7.70;2.88;;;22.60;79.50;;;;;;5049780;28;20388;-52
2022/06/26 06:14:26;;;;;;;6.10;2.70;;;24.00;1.00;;;;;;5049440;28;20455;-58
2022/06/26 06:16:51;;;;;;;5.80;2.28;;;25.80;1.00;;;;;;5049407;28;20412;-53
2022/06/26 06:19:17;;;;;;;7.25;1.70;;;27.90;99.90;;;;;;5049342;28;20425;-54
2022/06/26 06:21:43;;;;;;;7.18;2.17;;;29.80;99.90;;;;;;5048121;28;20389;-53
2022/06/26 06:24:08;;;;;;;6.50;3.42;;;32.00;99.90;;;;;;5049560;28;20413;-52
2022/06/26 06:26:35;;;;;;;5.83;3.40;;;33.00;99.90;;;;;;5031080;28;20823;-53
2022/06/26 06:29:07;;;;;;;5.80;4.10;;;33.60;99.90;;;;;;5048586;28;20871;-53
2022/06/26 06:31:32;;;;;;;5.50;1.90;;;34.60;99.90;;;;;;5048815;28;20459;-53
2022/06/26 06:34:03;;;;;;;5.30;1.50;;;35.20;99.90;;;;;;5049468;28;20433;-53
2022/06/26 06:36:29;;;;;;;5.15;1.70;;;35.00;99.90;;;;;;5046878;28;20412;-60
2022/06/26 06:38:54;;;;;;;5.88;2.90;;;35.40;99.90;;;;;;5049230;28;20393;-53
2022/06/26 06:41:20;;;;;;;5.80;1.80;;;35.20;99.90;;;;;;5049644;28;20398;-53
2022/06/26 06:43:46;;;;;;;4.63;1.20;;;34.70;99.90;;;;;;5048965;28;21268;-52
2022/06/26 06:46:12;;;;;;;5.57;1.48;;;34.50;99.90;;;;;;5048044;28;20572;-53
2022/06/26 06:48:37;;;;;;;5.10;1.20;;;34.50;99.90;;;;;;5047797;28;20823;-52
2022/06/26 06:51:04;;;;;;;5.30;1.50;;;34.10;99.90;;;;;;5048722;28;20386;-53
2022/06/26 06:53:30;;;;;;;5.40;1.30;;;34.30;99.90;;;;;;5048121;28;20447;-58
2022/06/26 06:55:55;;;;;;;5.00;1.40;;;34.90;99.90;;;;;;5049101;28;20389;-52
2022/06/26 06:58:21;;;;;;;5.38;2.47;;;34.80;99.90;;;;;;5048711;28;20500;-55
2022/06/26 07:00:47;;;;;;;6.37;4.13;;;34.40;99.90;;;;;;5047546;28;20877;-55
2022/06/26 07:03:12;;;;;;;5.90;3.90;;;34.30;99.90;;;;;;5048752;28;20401;-52
2022/06/26 07:05:38;;;;;;;6.00;3.85;;;34.20;99.90;;;;;;5047638;28;20397;-53
2022/06/26 07:08:04;;;;;;;6.07;2.30;;;34.00;99.90;;;;;;5045953;28;20862;-53
2022/06/26 07:10:30;;;;;;;5.20;1.60;;;34.50;99.90;;;;;;5047041;28;20878;-60
2022/06/26 07:12:58;;;;;;;5.10;1.40;;;35.00;99.90;;;;;;5047711;28;20413;-53
2022/06/26 07:15:24;;;;;;;8.27;6.20;;;34.80;99.90;;;;;;5046053;28;20390;-57
2022/06/26 07:17:50;;;;;;;6.60;4.40;;;34.40;99.90;;;;;;5047771;28;20385;-52
2022/06/26 07:20:16;;;;;;;5.60;4.07;;;33.00;99.90;;;;;;5048375;28;20401;-54
2022/06/26 07:22:42;;;;;;;6.30;4.00;;;32.80;99.90;;;;;;5047056;28;20408;-55
2022/06/26 07:25:08;;;;;;;5.55;3.50;;;33.20;99.90;;;;;;5048003;28;20413;-53
2022/06/26 07:27:34;;;;;;;5.70;3.53;;;34.20;99.90;;;;;;5046395;28;20500;-53
2022/06/26 07:30:00;;;;;;;6.93;3.22;;;34.20;99.90;;;;;;5048342;28;20938;-53
2022/06/26 07:32:27;;;;;;;5.90;3.40;;;35.10;99.90;;;;;;5047710;28;20398;-52
2022/06/26 07:34:54;;;;;;;7.13;3.70;;;35.50;99.90;;;;;;5047993;28;20408;-53
2022/06/26 07:37:19;;;;;;;7.85;5.28;;;35.50;99.90;;;;;;5047890;28;20397;-53
2022/06/26 07:39:45;;;;;;;8.20;6.60;;;36.00;99.90;;;;;;5050621;28;20405;-53
2022/06/26 07:42:12;;;;;;;4.80;1.30;;;36.40;99.90;;;;;;5060393;28;20385;-53
2022/06/26 07:44:37;;;;;;;5.10;1.30;;;36.80;99.90;;;;;;5063351;28;20407;-53
2022/06/26 07:47:03;;;;;;;9.60;1.40;;;36.00;99.90;;;;;;5033308;28;20822;-53
2022/06/26 07:49:29;;;;;;;6.60;5.30;;;35.40;99.90;;;;;;5055504;28;20763;-67
2022/06/26 07:51:55;;;;;;;6.60;3.40;;;35.30;99.90;;;;;;5047338;28;20398;-54
2022/06/26 07:54:21;;;;;;;9.07;6.85;;;34.90;99.90;;;;;;5044674;28;20408;-53
2022/06/26 07:56:50;;;;;;;4.90;1.20;;;35.70;99.90;;;;;;5033076;28;20941;-53
2022/06/26 07:59:15;;;;;;;4.80;1.50;;;36.50;99.90;;;;;;5055424;28;20450;-53
2022/06/26 08:01:41;;;;;;;5.40;1.70;;;36.20;99.90;;;;;;5049030;28;20847;-53
2022/06/26 08:04:08;;;;;;;7.20;5.07;;;36.20;99.90;;;;;;5051381;28;20385;-53
2022/06/26 08:06:33;;;;;;;6.20;1.20;;;36.80;99.90;;;;;;5049445;28;20778;-61
2022/06/26 08:09:00;;;;;;;4.90;1.20;;;37.50;99.90;;;;;;5032135;28;20413;-59
2022/06/26 08:11:26;;;;;;;5.88;3.60;;;36.70;99.90;;;;;;5046004;28;20408;-53
2022/06/26 08:13:52;;;;;;;5.30;3.30;;;35.40;99.90;;;;;;5046314;28;20578;-57
2022/06/26 08:16:18;;;;;;;5.30;3.15;;;35.70;99.90;;;;;;5050430;28;20771;-55
2022/06/26 08:18:44;;;;;;;5.80;1.20;;;36.50;99.90;;;;;;5050153;28;20393;-53
2022/06/26 08:23:54;;;;;;;5.90;1.20;;;37.50;99.90;;;;;;5051126;28;20551;-59
2022/06/26 08:26:19;;;;;;;7.10;3.55;;;36.40;99.90;;;;;;5049883;28;20766;-53
2022/06/26 08:28:45;;;;;;;5.80;3.20;;;36.00;99.90;;;;;;5032413;28;20409;-55
2022/06/26 08:31:11;;;;;;;6.30;4.33;;;36.40;99.90;;;;;;5051262;28;20398;-56
2022/06/26 08:33:36;;;;;;;6.00;4.40;;;36.70;99.90;;;;;;5031537;28;20435;-53
2022/06/26 08:36:04;;;;;;;6.20;1.60;;;37.50;99.90;;;;;;5050277;28;20484;-53
2022/06/26 08:38:30;;;;;;;4.80;1.15;;;38.10;99.90;;;;;;5049932;28;20397;-53
2022/06/26 08:40:59;;;;;;;4.65;1.10;;;38.50;99.90;;;;;;5049907;28;20400;-58
2022/06/26 08:43:26;;;;;;;5.20;1.15;;;37.90;99.90;;;;;;5032059;28;20473;-53
2022/06/26 08:45:55;;;;;;;5.05;2.30;;;37.70;99.90;;;;;;5050182;28;20408;-53
2022/06/26 08:48:25;;;;;;;5.88;1.30;;;37.10;99.90;;;;;;5049623;28;20496;-53
2022/06/26 08:50:51;;;;;;;4.70;1.30;;;37.70;99.90;;;;;;5046247;28;20405;-54
2022/06/26 08:53:18;;;;;;;5.40;2.00;;;38.80;99.90;;;;;;5045792;28;20455;-54
2022/06/26 08:55:44;;;;;;;5.55;1.70;;;39.70;99.90;;;;;;5027309;28;20805;-54
2022/06/26 08:58:10;;;;;;;4.70;1.20;;;39.90;99.90;;;;;;5049325;28;20390;-57
2022/06/26 09:00:35;;;;;;;5.00;1.40;;;39.80;99.90;;;;;;5048240;28;20427;-54
2022/06/26 09:03:02;;;;;;;5.40;1.50;;;38.30;99.90;;;;;;5051451;28;20447;-55
2022/06/26 09:05:27;;;;;;;6.82;1.20;;;38.90;99.90;;;;;;5032592;28;20401;-55
2022/06/26 09:07:54;;;;;;;4.80;1.17;;;39.40;99.90;;;;;;5027347;28;20420;-57
2022/06/26 09:10:26;;;;;;;6.00;4.13;;;38.60;99.90;;;;;;5048189;28;20405;-54
2022/06/26 09:12:53;;;;;;;6.40;4.25;;;36.00;99.90;;;;;;5047425;28;21017;-57
2022/06/26 09:15:20;;;;;;;5.70;4.10;;;34.60;99.90;;;;;;5030488;28;20493;-54
2022/06/26 09:18:00;;;;;;;6.70;4.20;;;34.40;99.90;;;;;;5046891;28;20488;-57
2022/06/26 09:20:26;;;;;;;5.75;3.90;;;35.00;99.90;;;;;;5033441;28;20777;-54
2022/06/26 09:23:02;;;;;;;5.65;4.13;;;35.30;99.90;;;;;;5047959;28;20423;-54
2022/06/26 09:25:35;;;;;;;5.60;3.70;;;35.50;99.90;;;;;;5047063;28;20405;-53
2022/06/26 09:28:06;;;;;;;8.57;7.78;;;35.70;99.90;;;;;;5039224;28;20841;-53
2022/06/26 09:30:32;;;;;;;7.17;5.97;;;36.20;99.90;;;;;;5031181;28;20901;-68
2022/06/26 09:32:57;;;;;;;6.93;4.73;;;36.70;99.90;;;;;;5030881;28;20432;-53
2022/06/26 09:35:24;;;;;;;6.30;3.60;;;36.40;99.90;;;;;;5030942;28;20850;-55
2022/06/26 09:37:49;;;;;;;6.40;4.30;;;36.50;99.90;;;;;;5047274;28;20483;-53
2022/06/26 09:40:16;;;;;;;6.13;4.55;;;36.70;99.90;;;;;;5049795;28;20525;-53
2022/06/26 09:42:41;;;;;;;6.80;5.00;;;36.30;99.90;;;;;;5047236;28;20427;-53
2022/06/26 09:45:10;;;;;;;9.60;4.40;;;35.80;99.90;;;;;;5049179;28;20405;-53
2022/06/26 09:47:36;;;;;;;6.65;4.30;;;35.00;99.90;;;;;;5045255;28;20473;-54
2022/06/26 09:50:05;;;;;;;9.70;3.70;;;35.40;99.90;;;;;;5044843;28;20406;-53
2022/06/26 09:52:32;;;;;;;6.20;3.70;;;36.40;99.90;;;;;;5049559;28;20466;-58
2022/06/26 09:55:00;;;;;;;5.70;4.30;;;36.40;99.90;;;;;;5046720;28;20413;-54
2022/06/26 09:57:27;;;;;;;7.47;3.90;;;36.00;99.90;;;;;;5049309;28;20386;-53
2022/06/26 09:59:54;;;;;;;5.70;3.80;;;36.10;99.90;;;;;;5049039;28;20392;-54
2022/06/26 10:07:52;;;;;;;5.90;3.80;;;36.20;99.90;;;;;;5029164;28;20933;-53
2022/06/26 10:10:21;;;;;;;6.22;3.65;;;37.00;99.90;;;;;;5028452;28;20823;-53
2022/06/26 10:12:59;;;;;;;6.30;3.90;;;36.90;99.90;;;;;;5028994;28;20415;-57
2022/06/26 10:15:33;;;;;;;6.00;3.45;;;35.80;99.90;;;;;;5030051;28;20406;-53
2022/06/26 10:18:36;;;;;;;7.93;4.30;;;35.10;99.90;;;;;;5029482;28;20395;-54
2022/06/26 10:21:12;;;;;;;5.63;3.50;;;35.40;99.90;;;;;;5029869;28;20470;-56
2022/06/26 10:23:40;;;;;;;6.60;3.83;;;35.00;99.90;;;;;;5028840;28;20395;-53
2022/06/26 10:26:12;;;;;;;6.28;3.35;;;34.70;99.90;;;;;;5029723;28;20922;-53
2022/06/26 10:28:53;;;;;;;5.93;3.78;;;35.20;99.90;;;;;;5028899;28;20423;-54
2022/06/26 10:31:19;;;;;;;5.70;4.05;;;34.90;99.90;;;;;;5039323;28;20475;-53
2022/06/26 10:33:48;;;;;;;6.37;3.80;;;34.30;99.90;;;;;;5048960;28;20883;-53
2022/06/26 10:36:23;;;;;;;5.80;3.60;;;33.60;99.90;;;;;;5049540;28;20425;-53
2022/06/26 10:38:50;;;;;;;6.70;4.10;;;33.30;99.90;;;;;;5048870;28;20866;-56
2022/06/26 10:44:03;;;;;;;6.90;4.40;;;32.80;99.90;;;;;;5049456;28;20376;-53
2022/06/26 10:46:47;;;;;;;7.00;4.40;;;32.60;99.90;;;;;;5049340;28;20385;-53
2022/06/26 10:49:13;;;;;;;5.78;3.80;;;32.90;99.90;;;;;;5049013;28;20894;-54
2022/06/26 10:51:41;;;;;;;6.00;3.70;;;32.90;99.90;;;;;;5048483;28;20386;-53
2022/06/26 10:54:20;;;;;;;6.32;4.28;;;32.30;99.90;;;;;;5049786;28;20381;-53
2022/06/26 10:56:47;;;;;;;7.17;3.93;;;31.50;99.90;;;;;;5035455;28;20443;-53
2022/06/26 10:59:17;;;;;;;7.83;3.80;;;31.20;99.90;;;;;;5049135;28;20381;-53
2022/06/26 11:01:43;;;;;;;6.00;3.10;;;30.70;99.90;;;;;;5056007;28;20380;-53
2022/06/26 11:04:09;;;;;;;6.13;3.65;;;30.60;99.90;;;;;;5035844;28;20396;-53
2022/06/26 11:06:42;;;;;;;5.80;3.20;;;30.80;99.90;;;;;;5048714;28;20889;-59
2022/06/26 11:09:08;;;;;;;5.70;3.20;;;30.90;99.90;;;;;;5049190;28;20385;-53
2022/06/26 11:11:34;;;;;;;6.20;3.10;;;30.90;99.90;;;;;;5048643;28;20427;-58
2022/06/26 11:14:08;;;;;;;6.10;4.00;;;30.40;99.90;;;;;;5048821;28;20796;-53
2022/06/26 11:16:41;;;;;;;6.07;3.40;;;29.90;99.90;;;;;;5051886;28;20400;-59
2022/06/26 11:19:27;;;;;;;5.90;3.65;;;30.10;99.90;;;;;;5053065;28;20389;-53
2022/06/26 11:22:10;;;;;;;6.40;3.83;;;29.70;99.90;;;;;;5034481;28;20393;-53
2022/06/26 11:24:50;;;;;;;5.90;3.60;;;30.10;99.90;;;;;;5052509;28;21005;-58
2022/06/26 11:27:24;;;;;;;5.50;3.00;;;30.30;99.90;;;;;;5053076;28;20879;-53
2022/06/26 11:29:50;;;;;;;5.78;3.10;;;30.70;99.90;;;;;;5052290;28;20385;-53
2022/06/26 11:32:20;;;;;;;5.95;3.25;;;30.70;99.90;;;;;;5052918;28;20476;-53
2022/06/26 11:34:54;;;;;;;6.07;3.50;;;30.60;99.90;;;;;;5051885;28;20423;-53
2022/06/26 11:37:32;;;;;;;5.38;2.90;;;30.90;99.90;;;;;;5052912;28;20448;-53
2022/06/26 11:39:58;;;;;;;5.75;3.20;;;31.30;99.90;;;;;;5052151;28;20377;-53
2022/06/26 11:42:24;;;;;;;6.22;3.42;;;31.20;99.90;;;;;;5052343;28;20385;-56
2022/06/26 11:44:51;;;;;;;5.60;3.70;;;31.40;99.90;;;;;;5052235;28;20382;-52
2022/06/26 11:47:17;;;;;;;5.53;2.60;;;30.80;99.90;;;;;;5052360;28;20410;-53
2022/06/26 11:49:43;;;;;;;5.37;2.90;;;31.40;99.90;;;;;;5055854;28;20946;-55
2022/06/26 11:52:09;;;;;;;5.67;2.90;;;31.60;99.90;;;;;;5055170;28;20397;-53
2022/06/26 11:54:36;;;;;;;6.90;2.85;;;30.90;99.90;;;;;;5059439;28;20386;-59
2022/06/26 11:57:09;;;;;;;6.30;3.37;;;31.10;99.90;;;;;;5052051;28;20451;-52
2022/06/26 11:59:45;;;;;;;5.30;2.78;;;30.70;99.90;;;;;;5050909;28;20458;-58
2022/06/26 12:02:22;;;;;;;6.30;3.20;;;30.80;99.90;;;;;;5052607;28;20464;-53
2022/06/26 12:04:58;;;;;;;5.90;3.33;;;30.20;99.90;;;;;;5051575;28;20377;-53
2022/06/26 12:07:24;;;;;;;5.88;3.47;;;30.10;99.90;;;;;;5051786;28;20925;-53
2022/06/26 12:09:50;;;;;;;5.60;3.22;;;30.60;99.90;;;;;;5051597;28;20411;-56
2022/06/26 12:12:15;;;;;;;6.38;3.33;;;30.80;99.90;;;;;;5052142;28;20473;-53
2022/06/26 12:14:52;;;;;;;5.20;2.70;;;30.90;99.90;;;;;;5051274;28;20385;-53
2022/06/26 12:17:24;;;;;;;6.22;2.90;;;31.10;99.90;;;;;;5052338;28;20392;-53
2022/06/26 12:19:50;;;;;;;6.88;3.50;;;30.80;99.90;;;;;;5051388;28;20575;-53
2022/06/26 12:22:31;;;;;;;5.60;3.50;;;30.70;99.90;;;;;;5052056;28;20833;-53
2022/06/26 12:24:57;;;;;;;6.10;3.67;;;30.50;99.90;;;;;;5051077;28;20488;-54
2022/06/26 12:27:37;;;;;;;6.78;3.53;;;30.40;99.90;;;;;;5050518;28;20478;-53
2022/06/26 12:30:15;;;;;;;6.37;3.20;;;30.50;99.90;;;;;;5052096;28;20423;-53
2022/06/26 12:32:41;;;;;;;7.82;3.90;;;30.60;99.90;;;;;;5051097;28;20421;-53
2022/06/26 12:35:07;;;;;;;5.60;3.20;;;31.00;99.90;;;;;;5033768;28;20391;-53
2022/06/26 12:37:33;;;;;;;5.93;2.87;;;31.10;99.90;;;;;;5051560;28;20942;-53
2022/06/26 12:39:58;;;;;;;5.60;3.27;;;30.80;99.90;;;;;;5051077;28;20481;-53
2022/06/26 12:42:24;;;;;;;5.60;3.30;;;30.60;99.90;;;;;;5051928;28;20460;-53
2022/06/26 12:44:50;;;;;;;6.15;3.20;;;30.30;99.90;;;;;;5050509;28;20462;-53
2022/06/26 12:47:15;;;;;;;6.20;3.38;;;30.00;99.90;;;;;;5051636;28;20932;-53
2022/06/26 12:49:41;;;;;;;7.07;3.75;;;30.10;99.90;;;;;;5050742;28;20448;-53
2022/06/26 12:52:07;;;;;;;5.65;3.22;;;30.00;99.90;;;;;;5033913;28;20390;-53
2022/06/26 12:54:32;;;;;;;5.90;3.45;;;30.00;99.90;;;;;;5052352;28;20381;-53
2022/06/26 12:56:58;;;;;;;5.40;2.70;;;30.00;99.90;;;;;;5050949;28;20454;-53
2022/06/26 12:59:24;;;;;;;5.57;3.15;;;30.00;99.90;;;;;;5033434;28;20374;-53
2022/06/26 13:01:50;;;;;;;5.50;3.10;;;30.20;99.90;;;;;;5050732;28;20378;-53
2022/06/26 13:04:15;;;;;;;5.80;4.00;;;30.40;99.90;;;;;;5051601;28;20388;-53